sensor_id;sensor_type;location;lat;lon;timestamp;temperature;humidity
21502;DHT22;27639;48.674;9.242;2022-11-21T00:00:04;8.70;62.40
21502;DHT22;27639;48.674;9.242;2022-11-21T00:02:29;8.70;62.30
21502;DHT22;27639;48.674;9.242;2022-11-21T00:04:55;8.70;62.40
21502;DHT22;27639;48.674;9.242;2022-11-21T00:07:21;8.70;62.40
21502;DHT22;27639;48.674;9.242;2022-11-21T00:09:46;8.60;62.40
21502;DHT22;27639;48.674;9.242;2022-11-21T00:12:12;8.60;62.50
21502;DHT22;27639;48.674;9.242;2022-11-21T00:14:37;8.50;62.50
21502;DHT22;27639;48.674;9.242;2022-11-21T00:17:03;8.50;62.70
21502;DHT22;27639;48.674;9.242;2022-11-21T00:19:28;8.60;62.60
21502;DHT22;27639;48.674;9.242;2022-11-21T00:21:54;8.60;62.80
21502;DHT22;27639;48.674;9.242;2022-11-21T00:24:19;8.60;63.10
21502;DHT22;27639;48.674;9.242;2022-11-21T00:26:45;8.70;63.00
21502;DHT22;27639;48.674;9.242;2022-11-21T00:29:10;8.60;63.00
21502;DHT22;27639;48.674;9.242;2022-11-21T00:31:36;8.60;63.10
21502;DHT22;27639;48.674;9.242;2022-11-21T00:34:01;8.50;62.90
21502;DHT22;27639;48.674;9.242;2022-11-21T00:36:27;8.50;63.00
21502;DHT22;27639;48.674;9.242;2022-11-21T00:38:52;8.50;63.10
21502;DHT22;27639;48.674;9.242;2022-11-21T00:41:18;8.40;63.10
21502;DHT22;27639;48.674;9.242;2022-11-21T00:43:43;8.40;63.10
21502;DHT22;27639;48.674;9.242;2022-11-21T00:46:09;8.40;63.00
21502;DHT22;27639;48.674;9.242;2022-11-21T00:48:34;8.50;62.80
21502;DHT22;27639;48.674;9.242;2022-11-21T00:51:00;8.40;62.60
21502;DHT22;27639;48.674;9.242;2022-11-21T00:53:26;8.50;62.60
21502;DHT22;27639;48.674;9.242;2022-11-21T00:55:51;8.50;62.50
21502;DHT22;27639;48.674;9.242;2022-11-21T00:58:17;8.50;62.50
21502;DHT22;27639;48.674;9.242;2022-11-21T01:00:42;8.40;62.40
21502;DHT22;27639;48.674;9.242;2022-11-21T01:03:08;8.40;62.40
21502;DHT22;27639;48.674;9.242;2022-11-21T01:05:34;8.50;62.50
21502;DHT22;27639;48.674;9.242;2022-11-21T01:07:59;8.50;62.50
21502;DHT22;27639;48.674;9.242;2022-11-21T01:10:25;8.50;62.20
21502;DHT22;27639;48.674;9.242;2022-11-21T01:12:50;8.50;62.30
21502;DHT22;27639;48.674;9.242;2022-11-21T01:15:16;8.50;62.50
21502;DHT22;27639;48.674;9.242;2022-11-21T01:17:41;8.50;62.70
21502;DHT22;27639;48.674;9.242;2022-11-21T01:20:07;8.40;62.70
21502;DHT22;27639;48.674;9.242;2022-11-21T01:22:33;8.40;62.90
21502;DHT22;27639;48.674;9.242;2022-11-21T01:24:58;8.30;63.20
21502;DHT22;27639;48.674;9.242;2022-11-21T01:27:24;8.30;63.30
21502;DHT22;27639;48.674;9.242;2022-11-21T01:29:49;8.30;63.30
21502;DHT22;27639;48.674;9.242;2022-11-21T01:32:17;8.30;63.70
21502;DHT22;27639;48.674;9.242;2022-11-21T01:34:42;8.40;63.50
21502;DHT22;27639;48.674;9.242;2022-11-21T01:37:08;8.40;63.60
21502;DHT22;27639;48.674;9.242;2022-11-21T01:39:33;8.30;63.60
21502;DHT22;27639;48.674;9.242;2022-11-21T01:41:59;8.40;63.70
21502;DHT22;27639;48.674;9.242;2022-11-21T01:44:44;8.50;63.70
21502;DHT22;27639;48.674;9.242;2022-11-21T01:47:09;8.40;63.80
21502;DHT22;27639;48.674;9.242;2022-11-21T01:49:36;8.40;64.00
21502;DHT22;27639;48.674;9.242;2022-11-21T01:54:42;8.50;64.10
21502;DHT22;27639;48.674;9.242;2022-11-21T02:00:04;8.40;64.40
21502;DHT22;27639;48.674;9.242;2022-11-21T02:02:33;8.50;64.50
21502;DHT22;27639;48.674;9.242;2022-11-21T02:05:02;8.50;64.70
21502;DHT22;27639;48.674;9.242;2022-11-21T02:07:31;8.50;64.80
21502;DHT22;27639;48.674;9.242;2022-11-21T02:10:00;8.50;64.80
21502;DHT22;27639;48.674;9.242;2022-11-21T02:12:36;8.50;64.90
21502;DHT22;27639;48.674;9.242;2022-11-21T02:15:04;8.50;64.70
21502;DHT22;27639;48.674;9.242;2022-11-21T02:17:30;8.50;64.70
21502;DHT22;27639;48.674;9.242;2022-11-21T02:20:01;8.50;64.60
21502;DHT22;27639;48.674;9.242;2022-11-21T02:25:11;8.40;65.00
21502;DHT22;27639;48.674;9.242;2022-11-21T02:27:38;8.40;65.30
21502;DHT22;27639;48.674;9.242;2022-11-21T02:30:06;8.40;65.40
21502;DHT22;27639;48.674;9.242;2022-11-21T02:32:35;8.30;65.30
21502;DHT22;27639;48.674;9.242;2022-11-21T02:35:01;8.40;65.40
21502;DHT22;27639;48.674;9.242;2022-11-21T02:37:27;8.30;65.30
21502;DHT22;27639;48.674;9.242;2022-11-21T02:39:54;8.40;65.40
21502;DHT22;27639;48.674;9.242;2022-11-21T02:42:37;8.50;65.40
21502;DHT22;27639;48.674;9.242;2022-11-21T02:45:23;8.50;65.10
21502;DHT22;27639;48.674;9.242;2022-11-21T02:47:54;8.50;65.10
21502;DHT22;27639;48.674;9.242;2022-11-21T02:50:25;8.40;65.30
21502;DHT22;27639;48.674;9.242;2022-11-21T02:52:51;8.50;65.10
21502;DHT22;27639;48.674;9.242;2022-11-21T02:55:17;8.50;65.10
21502;DHT22;27639;48.674;9.242;2022-11-21T02:57:42;8.50;65.10
21502;DHT22;27639;48.674;9.242;2022-11-21T03:00:09;8.50;65.10
21502;DHT22;27639;48.674;9.242;2022-11-21T03:02:35;8.40;65.40
21502;DHT22;27639;48.674;9.242;2022-11-21T03:05:02;8.40;65.30
21502;DHT22;27639;48.674;9.242;2022-11-21T03:07:28;8.40;65.40
21502;DHT22;27639;48.674;9.242;2022-11-21T03:09:54;8.40;65.30
21502;DHT22;27639;48.674;9.242;2022-11-21T03:12:19;8.40;65.20
21502;DHT22;27639;48.674;9.242;2022-11-21T03:14:45;8.40;65.30
21502;DHT22;27639;48.674;9.242;2022-11-21T03:17:10;8.40;65.30
21502;DHT22;27639;48.674;9.242;2022-11-21T03:19:36;8.40;65.10
21502;DHT22;27639;48.674;9.242;2022-11-21T03:22:01;8.30;65.30
21502;DHT22;27639;48.674;9.242;2022-11-21T03:24:27;8.30;65.30
21502;DHT22;27639;48.674;9.242;2022-11-21T03:26:53;8.30;65.00
21502;DHT22;27639;48.674;9.242;2022-11-21T03:29:18;8.30;65.00
21502;DHT22;27639;48.674;9.242;2022-11-21T03:31:44;8.30;64.90
21502;DHT22;27639;48.674;9.242;2022-11-21T03:34:09;8.30;65.30
21502;DHT22;27639;48.674;9.242;2022-11-21T03:36:35;8.30;65.30
21502;DHT22;27639;48.674;9.242;2022-11-21T03:39:01;8.30;65.30
21502;DHT22;27639;48.674;9.242;2022-11-21T03:41:26;8.30;65.30
21502;DHT22;27639;48.674;9.242;2022-11-21T03:46:30;8.30;65.30
21502;DHT22;27639;48.674;9.242;2022-11-21T03:48:56;8.30;65.40
21502;DHT22;27639;48.674;9.242;2022-11-21T03:51:22;8.30;65.30
21502;DHT22;27639;48.674;9.242;2022-11-21T03:53:47;8.20;65.20
21502;DHT22;27639;48.674;9.242;2022-11-21T03:56:13;8.30;65.30
21502;DHT22;27639;48.674;9.242;2022-11-21T03:58:39;8.30;66.10
21502;DHT22;27639;48.674;9.242;2022-11-21T04:01:05;8.40;65.40
21502;DHT22;27639;48.674;9.242;2022-11-21T04:03:31;8.40;65.40
21502;DHT22;27639;48.674;9.242;2022-11-21T04:05:56;8.40;65.40
21502;DHT22;27639;48.674;9.242;2022-11-21T04:08:22;8.50;65.40
21502;DHT22;27639;48.674;9.242;2022-11-21T04:10:51;8.50;65.30
21502;DHT22;27639;48.674;9.242;2022-11-21T04:13:18;8.60;65.20
21502;DHT22;27639;48.674;9.242;2022-11-21T04:15:44;8.60;65.20
21502;DHT22;27639;48.674;9.242;2022-11-21T04:18:11;8.60;64.90
21502;DHT22;27639;48.674;9.242;2022-11-21T04:20:37;8.70;65.00
21502;DHT22;27639;48.674;9.242;2022-11-21T04:23:04;8.70;64.90
21502;DHT22;27639;48.674;9.242;2022-11-21T04:25:30;8.70;64.90
21502;DHT22;27639;48.674;9.242;2022-11-21T04:28:01;8.70;64.80
21502;DHT22;27639;48.674;9.242;2022-11-21T04:30:27;8.70;65.00
21502;DHT22;27639;48.674;9.242;2022-11-21T04:32:54;8.60;65.10
21502;DHT22;27639;48.674;9.242;2022-11-21T04:35:21;8.60;65.00
21502;DHT22;27639;48.674;9.242;2022-11-21T04:37:48;8.70;65.00
21502;DHT22;27639;48.674;9.242;2022-11-21T04:40:14;8.70;64.90
21502;DHT22;27639;48.674;9.242;2022-11-21T04:42:41;8.70;64.80
21502;DHT22;27639;48.674;9.242;2022-11-21T04:45:07;8.70;64.90
21502;DHT22;27639;48.674;9.242;2022-11-21T04:47:38;8.70;64.80
21502;DHT22;27639;48.674;9.242;2022-11-21T04:50:05;8.70;64.60
21502;DHT22;27639;48.674;9.242;2022-11-21T04:52:31;8.80;64.70
21502;DHT22;27639;48.674;9.242;2022-11-21T04:54:56;8.70;64.60
21502;DHT22;27639;48.674;9.242;2022-11-21T04:57:22;8.70;64.80
21502;DHT22;27639;48.674;9.242;2022-11-21T04:59:48;8.70;64.80
21502;DHT22;27639;48.674;9.242;2022-11-21T05:02:13;8.70;64.80
21502;DHT22;27639;48.674;9.242;2022-11-21T05:04:39;8.70;64.80
21502;DHT22;27639;48.674;9.242;2022-11-21T05:07:04;8.60;65.10
21502;DHT22;27639;48.674;9.242;2022-11-21T05:09:30;8.60;65.30
21502;DHT22;27639;48.674;9.242;2022-11-21T05:11:56;8.60;65.50
21502;DHT22;27639;48.674;9.242;2022-11-21T05:14:40;8.60;65.50
21502;DHT22;27639;48.674;9.242;2022-11-21T05:17:06;8.50;65.40
21502;DHT22;27639;48.674;9.242;2022-11-21T05:19:31;8.50;65.40
21502;DHT22;27639;48.674;9.242;2022-11-21T05:21:57;8.40;65.40
21502;DHT22;27639;48.674;9.242;2022-11-21T05:24:22;8.40;65.40
21502;DHT22;27639;48.674;9.242;2022-11-21T05:26:48;8.30;65.30
21502;DHT22;27639;48.674;9.242;2022-11-21T05:29:14;8.30;65.30
21502;DHT22;27639;48.674;9.242;2022-11-21T05:31:39;8.20;65.20
21502;DHT22;27639;48.674;9.242;2022-11-21T05:34:05;8.30;65.30
21502;DHT22;27639;48.674;9.242;2022-11-21T05:36:30;8.30;65.30
21502;DHT22;27639;48.674;9.242;2022-11-21T05:38:56;8.30;65.30
21502;DHT22;27639;48.674;9.242;2022-11-21T05:41:21;8.30;65.30
21502;DHT22;27639;48.674;9.242;2022-11-21T05:43:47;8.30;65.30
21502;DHT22;27639;48.674;9.242;2022-11-21T05:46:24;8.30;65.30
21502;DHT22;27639;48.674;9.242;2022-11-21T05:48:52;8.30;65.30
21502;DHT22;27639;48.674;9.242;2022-11-21T05:51:18;8.20;65.20
21502;DHT22;27639;48.674;9.242;2022-11-21T05:53:44;8.20;65.20
21502;DHT22;27639;48.674;9.242;2022-11-21T05:56:15;8.20;65.30
21502;DHT22;27639;48.674;9.242;2022-11-21T05:58:41;8.20;65.20
21502;DHT22;27639;48.674;9.242;2022-11-21T06:01:08;8.20;65.20
21502;DHT22;27639;48.674;9.242;2022-11-21T06:03:37;8.20;65.20
21502;DHT22;27639;48.674;9.242;2022-11-21T06:06:12;8.30;65.30
21502;DHT22;27639;48.674;9.242;2022-11-21T06:08:39;8.30;65.30
21502;DHT22;27639;48.674;9.242;2022-11-21T06:11:07;8.40;65.50
21502;DHT22;27639;48.674;9.242;2022-11-21T06:13:33;8.40;65.40
21502;DHT22;27639;48.674;9.242;2022-11-21T06:18:24;8.50;65.30
21502;DHT22;27639;48.674;9.242;2022-11-21T06:20:50;8.50;65.20
21502;DHT22;27639;48.674;9.242;2022-11-21T06:23:16;8.60;65.30
21502;DHT22;27639;48.674;9.242;2022-11-21T06:25:42;8.60;65.20
21502;DHT22;27639;48.674;9.242;2022-11-21T06:28:09;8.60;65.10
21502;DHT22;27639;48.674;9.242;2022-11-21T06:30:35;8.50;64.90
21502;DHT22;27639;48.674;9.242;2022-11-21T06:33:02;8.50;64.90
21502;DHT22;27639;48.674;9.242;2022-11-21T06:35:28;8.50;64.80
21502;DHT22;27639;48.674;9.242;2022-11-21T06:37:55;8.40;64.80
21502;DHT22;27639;48.674;9.242;2022-11-21T06:40:22;8.50;64.90
21502;DHT22;27639;48.674;9.242;2022-11-21T06:42:48;8.40;64.70
21502;DHT22;27639;48.674;9.242;2022-11-21T06:45:13;8.40;64.60
21502;DHT22;27639;48.674;9.242;2022-11-21T06:47:39;8.40;64.50
21502;DHT22;27639;48.674;9.242;2022-11-21T06:50:05;8.40;64.50
21502;DHT22;27639;48.674;9.242;2022-11-21T06:52:33;8.40;64.40
21502;DHT22;27639;48.674;9.242;2022-11-21T06:55:00;8.40;64.30
21502;DHT22;27639;48.674;9.242;2022-11-21T06:57:25;8.40;64.30
21502;DHT22;27639;48.674;9.242;2022-11-21T06:59:51;8.40;64.10
21502;DHT22;27639;48.674;9.242;2022-11-21T07:02:16;8.40;63.90
21502;DHT22;27639;48.674;9.242;2022-11-21T07:04:42;8.40;63.70
21502;DHT22;27639;48.674;9.242;2022-11-21T07:07:08;8.40;63.70
21502;DHT22;27639;48.674;9.242;2022-11-21T07:09:33;8.40;63.60
21502;DHT22;27639;48.674;9.242;2022-11-21T07:12:00;8.30;63.60
21502;DHT22;27639;48.674;9.242;2022-11-21T07:14:46;8.30;63.70
21502;DHT22;27639;48.674;9.242;2022-11-21T07:17:12;8.30;63.90
21502;DHT22;27639;48.674;9.242;2022-11-21T07:19:39;8.30;63.70
21502;DHT22;27639;48.674;9.242;2022-11-21T07:22:05;8.20;63.60
21502;DHT22;27639;48.674;9.242;2022-11-21T07:24:30;8.20;63.60
21502;DHT22;27639;48.674;9.242;2022-11-21T07:26:56;8.30;63.60
21502;DHT22;27639;48.674;9.242;2022-11-21T07:29:21;8.30;63.60
21502;DHT22;27639;48.674;9.242;2022-11-21T07:31:47;8.30;63.50
21502;DHT22;27639;48.674;9.242;2022-11-21T07:34:12;8.30;63.50
21502;DHT22;27639;48.674;9.242;2022-11-21T07:36:38;8.20;63.50
21502;DHT22;27639;48.674;9.242;2022-11-21T07:39:03;8.20;63.50
21502;DHT22;27639;48.674;9.242;2022-11-21T07:41:31;8.20;63.60
21502;DHT22;27639;48.674;9.242;2022-11-21T07:43:56;8.20;63.60
21502;DHT22;27639;48.674;9.242;2022-11-21T07:46:22;8.20;63.60
21502;DHT22;27639;48.674;9.242;2022-11-21T07:48:47;8.20;63.60
21502;DHT22;27639;48.674;9.242;2022-11-21T07:51:13;8.20;63.60
21502;DHT22;27639;48.674;9.242;2022-11-21T07:53:38;8.20;63.60
21502;DHT22;27639;48.674;9.242;2022-11-21T07:56:04;8.20;63.80
21502;DHT22;27639;48.674;9.242;2022-11-21T07:58:29;8.30;64.00
21502;DHT22;27639;48.674;9.242;2022-11-21T08:00:55;8.30;64.10
21502;DHT22;27639;48.674;9.242;2022-11-21T08:03:21;8.30;64.10
21502;DHT22;27639;48.674;9.242;2022-11-21T08:05:47;8.30;64.20
21502;DHT22;27639;48.674;9.242;2022-11-21T08:08:14;8.30;64.20
21502;DHT22;27639;48.674;9.242;2022-11-21T08:10:42;8.30;64.40
21502;DHT22;27639;48.674;9.242;2022-11-21T08:13:08;8.40;64.60
21502;DHT22;27639;48.674;9.242;2022-11-21T08:15:34;8.40;64.50
21502;DHT22;27639;48.674;9.242;2022-11-21T08:18:11;8.50;64.60
21502;DHT22;27639;48.674;9.242;2022-11-21T08:20:37;8.50;64.60
21502;DHT22;27639;48.674;9.242;2022-11-21T08:23:03;8.50;64.90
21502;DHT22;27639;48.674;9.242;2022-11-21T08:25:30;8.50;65.00
21502;DHT22;27639;48.674;9.242;2022-11-21T08:27:57;8.50;65.00
21502;DHT22;27639;48.674;9.242;2022-11-21T08:30:23;8.50;65.20
21502;DHT22;27639;48.674;9.242;2022-11-21T08:32:48;8.50;65.30
21502;DHT22;27639;48.674;9.242;2022-11-21T08:35:14;8.50;65.50
21502;DHT22;27639;48.674;9.242;2022-11-21T08:37:39;8.60;65.50
21502;DHT22;27639;48.674;9.242;2022-11-21T08:40:06;8.60;65.30
21502;DHT22;27639;48.674;9.242;2022-11-21T08:42:31;8.70;65.50
21502;DHT22;27639;48.674;9.242;2022-11-21T08:44:57;8.70;65.20
21502;DHT22;27639;48.674;9.242;2022-11-21T08:47:22;8.70;65.00
21502;DHT22;27639;48.674;9.242;2022-11-21T08:49:48;8.80;64.90
21502;DHT22;27639;48.674;9.242;2022-11-21T08:52:15;8.80;64.90
21502;DHT22;27639;48.674;9.242;2022-11-21T08:54:41;8.90;65.00
21502;DHT22;27639;48.674;9.242;2022-11-21T08:57:08;8.80;65.00
21502;DHT22;27639;48.674;9.242;2022-11-21T08:59:34;8.90;65.10
21502;DHT22;27639;48.674;9.242;2022-11-21T09:01:59;8.90;65.20
21502;DHT22;27639;48.674;9.242;2022-11-21T09:04:25;8.90;65.30
21502;DHT22;27639;48.674;9.242;2022-11-21T09:06:51;9.00;65.40
21502;DHT22;27639;48.674;9.242;2022-11-21T09:09:16;9.00;65.50
21502;DHT22;27639;48.674;9.242;2022-11-21T09:11:42;9.10;65.30
21502;DHT22;27639;48.674;9.242;2022-11-21T09:14:07;9.20;65.40
21502;DHT22;27639;48.674;9.242;2022-11-21T09:16:52;9.10;65.00
21502;DHT22;27639;48.674;9.242;2022-11-21T09:19:52;9.10;65.20
21502;DHT22;27639;48.674;9.242;2022-11-21T09:22:18;9.10;65.50
21502;DHT22;27639;48.674;9.242;2022-11-21T09:24:43;9.30;65.60
21502;DHT22;27639;48.674;9.242;2022-11-21T09:27:09;9.40;65.00
21502;DHT22;27639;48.674;9.242;2022-11-21T09:29:34;9.60;65.30
21502;DHT22;27639;48.674;9.242;2022-11-21T09:32:00;9.70;65.00
21502;DHT22;27639;48.674;9.242;2022-11-21T09:34:26;10.00;63.90
21502;DHT22;27639;48.674;9.242;2022-11-21T09:36:51;10.10;63.00
21502;DHT22;27639;48.674;9.242;2022-11-21T09:39:17;10.20;62.90
21502;DHT22;27639;48.674;9.242;2022-11-21T09:47:05;10.70;62.70
21502;DHT22;27639;48.674;9.242;2022-11-21T09:49:40;10.90;62.20
21502;DHT22;27639;48.674;9.242;2022-11-21T09:52:07;10.90;61.80
21502;DHT22;27639;48.674;9.242;2022-11-21T09:54:40;11.00;62.00
21502;DHT22;27639;48.674;9.242;2022-11-21T09:57:10;11.10;61.00
21502;DHT22;27639;48.674;9.242;2022-11-21T09:59:37;11.20;61.00
21502;DHT22;27639;48.674;9.242;2022-11-21T10:02:23;11.30;60.10
21502;DHT22;27639;48.674;9.242;2022-11-21T10:04:50;11.30;59.80
21502;DHT22;27639;48.674;9.242;2022-11-21T10:07:26;11.40;59.60
21502;DHT22;27639;48.674;9.242;2022-11-21T10:20:49;11.50;58.40
21502;DHT22;27639;48.674;9.242;2022-11-21T10:26:22;11.50;57.70
21502;DHT22;27639;48.674;9.242;2022-11-21T10:29:15;11.50;57.50
21502;DHT22;27639;48.674;9.242;2022-11-21T10:31:42;11.50;58.00
21502;DHT22;27639;48.674;9.242;2022-11-21T10:34:14;11.60;57.90
21502;DHT22;27639;48.674;9.242;2022-11-21T10:36:46;11.60;57.70
21502;DHT22;27639;48.674;9.242;2022-11-21T10:39:36;11.70;58.00
21502;DHT22;27639;48.674;9.242;2022-11-21T10:42:21;11.70;58.00
21502;DHT22;27639;48.674;9.242;2022-11-21T10:44:50;11.70;57.50
21502;DHT22;27639;48.674;9.242;2022-11-21T10:47:34;11.70;57.80
21502;DHT22;27639;48.674;9.242;2022-11-21T10:52:37;11.70;57.70
21502;DHT22;27639;48.674;9.242;2022-11-21T10:55:09;11.70;57.70
21502;DHT22;27639;48.674;9.242;2022-11-21T10:57:43;11.80;57.40
21502;DHT22;27639;48.674;9.242;2022-11-21T11:02:57;12.00;57.10
21502;DHT22;27639;48.674;9.242;2022-11-21T11:05:28;12.10;56.80
21502;DHT22;27639;48.674;9.242;2022-11-21T11:08:13;12.10;56.40
21502;DHT22;27639;48.674;9.242;2022-11-21T11:10:41;12.30;56.40
21502;DHT22;27639;48.674;9.242;2022-11-21T11:13:18;12.50;56.60
21502;DHT22;27639;48.674;9.242;2022-11-21T11:16:09;12.60;55.90
21502;DHT22;27639;48.674;9.242;2022-11-21T11:18:46;12.70;55.80
21502;DHT22;27639;48.674;9.242;2022-11-21T11:23:38;12.90;55.20
21502;DHT22;27639;48.674;9.242;2022-11-21T11:26:19;13.00;55.20
21502;DHT22;27639;48.674;9.242;2022-11-21T11:28:44;13.20;54.90
21502;DHT22;27639;48.674;9.242;2022-11-21T11:31:10;13.40;54.70
21502;DHT22;27639;48.674;9.242;2022-11-21T11:38:54;13.50;53.10
21502;DHT22;27639;48.674;9.242;2022-11-21T11:44:02;13.30;52.90
21502;DHT22;27639;48.674;9.242;2022-11-21T11:47:04;13.20;53.40
21502;DHT22;27639;48.674;9.242;2022-11-21T11:49:51;13.30;53.20
21502;DHT22;27639;48.674;9.242;2022-11-21T11:52:49;13.30;53.50
21502;DHT22;27639;48.674;9.242;2022-11-21T11:55:20;13.30;52.90
21502;DHT22;27639;48.674;9.242;2022-11-21T11:57:50;13.30;52.90
21502;DHT22;27639;48.674;9.242;2022-11-21T12:00:44;13.40;53.00
21502;DHT22;27639;48.674;9.242;2022-11-21T12:03:28;13.40;53.00
21502;DHT22;27639;48.674;9.242;2022-11-21T12:06:08;13.40;53.10
21502;DHT22;27639;48.674;9.242;2022-11-21T12:09:00;13.30;52.80
21502;DHT22;27639;48.674;9.242;2022-11-21T12:11:42;13.20;52.80
21502;DHT22;27639;48.674;9.242;2022-11-21T12:39:46;13.60;52.00
21502;DHT22;27639;48.674;9.242;2022-11-21T12:42:27;13.60;51.30
21502;DHT22;27639;48.674;9.242;2022-11-21T12:48:04;13.60;50.50
21502;DHT22;27639;48.674;9.242;2022-11-21T12:54:24;13.50;49.40
21502;DHT22;27639;48.674;9.242;2022-11-21T12:57:10;13.50;49.30
21502;DHT22;27639;48.674;9.242;2022-11-21T13:05:25;13.70;49.40
21502;DHT22;27639;48.674;9.242;2022-11-21T13:07:59;13.80;49.30
21502;DHT22;27639;48.674;9.242;2022-11-21T13:10:25;13.80;49.10
21502;DHT22;27639;48.674;9.242;2022-11-21T13:15:44;13.70;49.40
21502;DHT22;27639;48.674;9.242;2022-11-21T13:18:20;13.70;49.20
21502;DHT22;27639;48.674;9.242;2022-11-21T13:20:49;13.70;49.30
21502;DHT22;27639;48.674;9.242;2022-11-21T13:23:34;13.70;48.90
21502;DHT22;27639;48.674;9.242;2022-11-21T13:26:01;13.70;48.90
21502;DHT22;27639;48.674;9.242;2022-11-21T13:28:31;13.60;49.20
21502;DHT22;27639;48.674;9.242;2022-11-21T13:30:59;13.60;49.20
21502;DHT22;27639;48.674;9.242;2022-11-21T13:58:04;13.40;48.10
21502;DHT22;27639;48.674;9.242;2022-11-21T14:08:28;13.10;48.90
21502;DHT22;27639;48.674;9.242;2022-11-21T14:10:55;13.20;48.90
21502;DHT22;27639;48.674;9.242;2022-11-21T14:18:29;13.20;48.60
21502;DHT22;27639;48.674;9.242;2022-11-21T14:20:58;13.30;48.90
21502;DHT22;27639;48.674;9.242;2022-11-21T14:23:27;13.30;48.70
21502;DHT22;27639;48.674;9.242;2022-11-21T14:26:04;13.30;48.70
21502;DHT22;27639;48.674;9.242;2022-11-21T14:28:35;13.30;48.50
21502;DHT22;27639;48.674;9.242;2022-11-21T14:31:02;13.30;48.70
21502;DHT22;27639;48.674;9.242;2022-11-21T14:33:31;13.30;49.50
21502;DHT22;27639;48.674;9.242;2022-11-21T14:36:18;13.30;48.70
21502;DHT22;27639;48.674;9.242;2022-11-21T14:38:54;13.20;48.60
21502;DHT22;27639;48.674;9.242;2022-11-21T14:46:28;13.10;49.00
21502;DHT22;27639;48.674;9.242;2022-11-21T14:48:55;13.10;49.00
21502;DHT22;27639;48.674;9.242;2022-11-21T14:51:25;13.10;48.90
21502;DHT22;27639;48.674;9.242;2022-11-21T14:53:52;13.10;49.00
21502;DHT22;27639;48.674;9.242;2022-11-21T14:56:31;13.10;49.50
21502;DHT22;27639;48.674;9.242;2022-11-21T14:59:01;13.10;49.60
21502;DHT22;27639;48.674;9.242;2022-11-21T15:01:32;13.00;49.30
21502;DHT22;27639;48.674;9.242;2022-11-21T15:04:03;13.00;49.60
21502;DHT22;27639;48.674;9.242;2022-11-21T15:06:30;13.00;49.40
21502;DHT22;27639;48.674;9.242;2022-11-21T15:08:58;13.00;49.40
21502;DHT22;27639;48.674;9.242;2022-11-21T15:11:47;13.00;49.50
21502;DHT22;27639;48.674;9.242;2022-11-21T15:16:57;12.80;49.70
21502;DHT22;27639;48.674;9.242;2022-11-21T15:19:25;12.70;49.90
21502;DHT22;27639;48.674;9.242;2022-11-21T15:21:54;12.60;50.30
21502;DHT22;27639;48.674;9.242;2022-11-21T15:24:41;12.50;50.60
21502;DHT22;27639;48.674;9.242;2022-11-21T15:28:05;12.40;50.60
21502;DHT22;27639;48.674;9.242;2022-11-21T15:30:34;12.40;50.80
21502;DHT22;27639;48.674;9.242;2022-11-21T15:33:19;12.20;50.80
21502;DHT22;27639;48.674;9.242;2022-11-21T15:35:46;12.20;50.90
21502;DHT22;27639;48.674;9.242;2022-11-21T15:43:46;12.10;50.90
21502;DHT22;27639;48.674;9.242;2022-11-21T15:46:14;12.00;50.80
21502;DHT22;27639;48.674;9.242;2022-11-21T15:48:41;12.00;51.20
21502;DHT22;27639;48.674;9.242;2022-11-21T15:51:10;11.90;51.90
21502;DHT22;27639;48.674;9.242;2022-11-21T15:53:36;11.90;51.30
21502;DHT22;27639;48.674;9.242;2022-11-21T15:56:02;11.80;51.50
21502;DHT22;27639;48.674;9.242;2022-11-21T15:58:28;11.80;51.60
21502;DHT22;27639;48.674;9.242;2022-11-21T16:00:54;11.70;51.60
21502;DHT22;27639;48.674;9.242;2022-11-21T16:03:19;11.60;52.00
21502;DHT22;27639;48.674;9.242;2022-11-21T16:05:45;11.50;52.20
21502;DHT22;27639;48.674;9.242;2022-11-21T16:08:10;11.50;52.90
21502;DHT22;27639;48.674;9.242;2022-11-21T16:10:36;11.40;51.90
21502;DHT22;27639;48.674;9.242;2022-11-21T16:13:02;11.40;51.40
21502;DHT22;27639;48.674;9.242;2022-11-21T16:15:27;11.30;51.20
21502;DHT22;27639;48.674;9.242;2022-11-21T16:17:53;11.30;51.20
21502;DHT22;27639;48.674;9.242;2022-11-21T16:20:19;11.20;51.10
21502;DHT22;27639;48.674;9.242;2022-11-21T16:22:44;11.20;51.20
21502;DHT22;27639;48.674;9.242;2022-11-21T16:25:10;11.10;51.00
21502;DHT22;27639;48.674;9.242;2022-11-21T16:27:35;11.10;50.90
21502;DHT22;27639;48.674;9.242;2022-11-21T16:30:01;11.00;50.90
21502;DHT22;27639;48.674;9.242;2022-11-21T16:32:26;10.90;50.90
21502;DHT22;27639;48.674;9.242;2022-11-21T16:34:52;10.80;50.90
21502;DHT22;27639;48.674;9.242;2022-11-21T16:37:19;10.70;50.70
21502;DHT22;27639;48.674;9.242;2022-11-21T16:39:45;10.70;50.80
21502;DHT22;27639;48.674;9.242;2022-11-21T16:42:16;10.60;50.70
21502;DHT22;27639;48.674;9.242;2022-11-21T16:44:42;10.60;51.20
21502;DHT22;27639;48.674;9.242;2022-11-21T16:47:08;10.50;51.50
21502;DHT22;27639;48.674;9.242;2022-11-21T16:49:34;10.50;51.50
21502;DHT22;27639;48.674;9.242;2022-11-21T16:52:00;10.40;51.40
21502;DHT22;27639;48.674;9.242;2022-11-21T16:54:26;10.40;51.50
21502;DHT22;27639;48.674;9.242;2022-11-21T16:56:51;10.30;51.70
21502;DHT22;27639;48.674;9.242;2022-11-21T16:59:17;10.30;51.70
21502;DHT22;27639;48.674;9.242;2022-11-21T17:01:43;10.30;51.60
21502;DHT22;27639;48.674;9.242;2022-11-21T17:04:08;10.30;51.70
21502;DHT22;27639;48.674;9.242;2022-11-21T17:06:34;10.20;51.60
21502;DHT22;27639;48.674;9.242;2022-11-21T17:09:00;10.20;51.60
21502;DHT22;27639;48.674;9.242;2022-11-21T17:11:28;10.20;51.90
21502;DHT22;27639;48.674;9.242;2022-11-21T17:13:57;10.10;52.10
21502;DHT22;27639;48.674;9.242;2022-11-21T17:16:23;10.10;53.00
21502;DHT22;27639;48.674;9.242;2022-11-21T17:18:53;10.10;52.40
21502;DHT22;27639;48.674;9.242;2022-11-21T17:21:19;10.00;52.20
21502;DHT22;27639;48.674;9.242;2022-11-21T17:23:44;10.00;52.00
21502;DHT22;27639;48.674;9.242;2022-11-21T17:26:16;10.00;52.20
21502;DHT22;27639;48.674;9.242;2022-11-21T17:28:42;10.00;52.10
21502;DHT22;27639;48.674;9.242;2022-11-21T17:31:13;10.00;52.20
21502;DHT22;27639;48.674;9.242;2022-11-21T17:33:40;10.00;52.50
21502;DHT22;27639;48.674;9.242;2022-11-21T17:36:12;9.90;53.60
21502;DHT22;27639;48.674;9.242;2022-11-21T17:38:39;9.80;53.60
21502;DHT22;27639;48.674;9.242;2022-11-21T17:41:06;9.80;53.50
21502;DHT22;27639;48.674;9.242;2022-11-21T17:43:33;9.90;53.40
21502;DHT22;27639;48.674;9.242;2022-11-21T17:46:04;9.80;53.30
21502;DHT22;27639;48.674;9.242;2022-11-21T17:48:32;9.70;53.30
21502;DHT22;27639;48.674;9.242;2022-11-21T17:51:19;9.70;53.60
21502;DHT22;27639;48.674;9.242;2022-11-21T17:53:47;9.60;53.70
21502;DHT22;27639;48.674;9.242;2022-11-21T17:56:18;9.50;54.10
21502;DHT22;27639;48.674;9.242;2022-11-21T17:58:44;9.50;54.30
21502;DHT22;27639;48.674;9.242;2022-11-21T18:01:11;9.50;54.50
21502;DHT22;27639;48.674;9.242;2022-11-21T18:03:46;9.50;54.70
21502;DHT22;27639;48.674;9.242;2022-11-21T18:06:14;9.50;54.90
21502;DHT22;27639;48.674;9.242;2022-11-21T18:08:42;9.50;54.90